Forest Park Beach, Indiana
Current Conditions -  °F | °C
As of 12:55 AM on Thursday 27 Nov 2014 (Local Time) from KANQ Reporting Station
Overcast Overcast  
Wind Chill: 21°   Ceiling: 3100
Heat Index: 27°   Visibility: 10mi
Dew Point: 14°   Wind: 5mph
Humidity: 59%   Direction: 360°N
Pressure: 30.1"   Gusts: NA
Location:  41.5557°N, 84.8806°W
Report Text: KANQ 270555Z AUTO 36004KT 10SM OVC031 M03/M10 A3010 RMK
Loading
Personal Weather Stations






























Interactive Weather Map New forecast layout! Learn more

10-Day Weather Forecast

Advertisements
Track Severe Weather on mobile